KBIX

Keesler AFB Airport

Biloxi, Mississippi, USA
METAR KBIX 240256Z AUTO 13007KT 10SM SCT027 28/23 A2995 RMK AO2 SLP145 T02820229 52011
Observed Flight Rules
Sep-24 @ 02:56 UTC (50 minutes ago) Visual Flight Rules
Wind Visibility Clouds
130° at 7 knots 10 miles
  • Scattered at 2,700' AGL
Temperatures Readings
Current 28°C / 82°F
Dewpoint 23°C / 73°F
Humidity 74%
Altimeter 29.95" Hg
Pressure 1014.5 hPa
Elevation 10
METAR KBIX 240256Z AUTO 13007KT 10SM SCT027 28/23 A2995 RMK AO2 SLP145 T02820229 52011
Observed Flight Rules
Sep-24 @ 02:56 UTC
(50 minutes ago)
VFR
Wind Visibility
130° at 7 knots 10 miles
Clouds
  • Scattered at 2,700' AGL
Temperature Dewpoint
28°C / 82°F 23°C / 73°F
Humidity Altimeter Pressure
74% 29.95" Hg 1014.5 hPa